sensor_id;sensor_type;location;lat;lon;timestamp;P1;durP1;ratioP1;P2;durP2;ratioP2
59984;SDS011;45843;47.532;18.660;2024-03-06T00:02:14;0.20;;;0.20;;
59984;SDS011;45843;47.532;18.660;2024-03-06T00:04:40;0.10;;;0.10;;
59984;SDS011;45843;47.532;18.660;2024-03-06T00:07:06;0.10;;;0.10;;
59984;SDS011;45843;47.532;18.660;2024-03-06T00:09:33;0.15;;;0.15;;
59984;SDS011;45843;47.532;18.660;2024-03-06T00:11:59;0.00;;;0.00;;
59984;SDS011;45843;47.532;18.660;2024-03-06T00:14:26;0.10;;;0.10;;
59984;SDS011;45843;47.532;18.660;2024-03-06T00:16:52;0.03;;;0.03;;
59984;SDS011;45843;47.532;18.660;2024-03-06T00:19:21;0.10;;;0.10;;
59984;SDS011;45843;47.532;18.660;2024-03-06T00:21:48;0.10;;;0.10;;
59984;SDS011;45843;47.532;18.660;2024-03-06T00:24:15;0.10;;;0.10;;
59984;SDS011;45843;47.532;18.660;2024-03-06T00:26:42;0.20;;;0.20;;
59984;SDS011;45843;47.532;18.660;2024-03-06T00:29:09;0.10;;;0.10;;
59984;SDS011;45843;47.532;18.660;2024-03-06T00:31:36;0.10;;;0.10;;
59984;SDS011;45843;47.532;18.660;2024-03-06T00:34:02;0.10;;;0.10;;
59984;SDS011;45843;47.532;18.660;2024-03-06T00:36:28;0.10;;;0.10;;
59984;SDS011;45843;47.532;18.660;2024-03-06T00:38:55;0.10;;;0.10;;
59984;SDS011;45843;47.532;18.660;2024-03-06T00:41:22;0.10;;;0.10;;
59984;SDS011;45843;47.532;18.660;2024-03-06T00:43:48;0.10;;;0.10;;
59984;SDS011;45843;47.532;18.660;2024-03-06T00:46:15;0.08;;;0.08;;
59984;SDS011;45843;47.532;18.660;2024-03-06T00:48:42;0.13;;;0.13;;
59984;SDS011;45843;47.532;18.660;2024-03-06T00:51:08;0.05;;;0.05;;
59984;SDS011;45843;47.532;18.660;2024-03-06T00:53:35;0.10;;;0.10;;
59984;SDS011;45843;47.532;18.660;2024-03-06T00:56:01;0.10;;;0.10;;
59984;SDS011;45843;47.532;18.660;2024-03-06T00:58:28;0.20;;;0.20;;
59984;SDS011;45843;47.532;18.660;2024-03-06T01:00:54;0.10;;;0.10;;
59984;SDS011;45843;47.532;18.660;2024-03-06T01:03:21;0.10;;;0.10;;
59984;SDS011;45843;47.532;18.660;2024-03-06T01:05:47;0.20;;;0.20;;
59984;SDS011;45843;47.532;18.660;2024-03-06T01:08:13;0.10;;;0.10;;
59984;SDS011;45843;47.532;18.660;2024-03-06T01:10:43;0.10;;;0.10;;
59984;SDS011;45843;47.532;18.660;2024-03-06T01:13:10;0.10;;;0.10;;
59984;SDS011;45843;47.532;18.660;2024-03-06T01:15:36;0.20;;;0.20;;
59984;SDS011;45843;47.532;18.660;2024-03-06T01:18:03;0.10;;;0.10;;
59984;SDS011;45843;47.532;18.660;2024-03-06T01:20:29;0.10;;;0.10;;
59984;SDS011;45843;47.532;18.660;2024-03-06T01:22:56;0.10;;;0.10;;
59984;SDS011;45843;47.532;18.660;2024-03-06T01:25:22;0.10;;;0.10;;
59984;SDS011;45843;47.532;18.660;2024-03-06T01:27:49;0.10;;;0.10;;
59984;SDS011;45843;47.532;18.660;2024-03-06T01:30:16;0.10;;;0.10;;
59984;SDS011;45843;47.532;18.660;2024-03-06T01:32:42;0.20;;;0.20;;
59984;SDS011;45843;47.532;18.660;2024-03-06T01:35:08;0.10;;;0.10;;
59984;SDS011;45843;47.532;18.660;2024-03-06T01:37:35;0.10;;;0.10;;
59984;SDS011;45843;47.532;18.660;2024-03-06T01:40:01;0.10;;;0.10;;
59984;SDS011;45843;47.532;18.660;2024-03-06T01:42:30;0.10;;;0.10;;
59984;SDS011;45843;47.532;18.660;2024-03-06T01:44:56;0.10;;;0.10;;
59984;SDS011;45843;47.532;18.660;2024-03-06T01:47:22;0.17;;;0.17;;
59984;SDS011;45843;47.532;18.660;2024-03-06T01:49:49;0.10;;;0.10;;
59984;SDS011;45843;47.532;18.660;2024-03-06T01:52:16;0.10;;;0.10;;
59984;SDS011;45843;47.532;18.660;2024-03-06T01:54:43;0.17;;;0.17;;
59984;SDS011;45843;47.532;18.660;2024-03-06T01:57:10;0.10;;;0.10;;
59984;SDS011;45843;47.532;18.660;2024-03-06T01:59:40;0.17;;;0.17;;
59984;SDS011;45843;47.532;18.660;2024-03-06T02:02:07;0.10;;;0.10;;
59984;SDS011;45843;47.532;18.660;2024-03-06T02:04:36;0.10;;;0.10;;
59984;SDS011;45843;47.532;18.660;2024-03-06T02:07:03;0.10;;;0.10;;
59984;SDS011;45843;47.532;18.660;2024-03-06T02:09:30;0.10;;;0.10;;
59984;SDS011;45843;47.532;18.660;2024-03-06T02:11:57;0.10;;;0.10;;
59984;SDS011;45843;47.532;18.660;2024-03-06T02:14:23;0.20;;;0.20;;
59984;SDS011;45843;47.532;18.660;2024-03-06T02:16:50;0.10;;;0.10;;
59984;SDS011;45843;47.532;18.660;2024-03-06T02:19:16;0.20;;;0.20;;
59984;SDS011;45843;47.532;18.660;2024-03-06T02:21:42;0.20;;;0.20;;
59984;SDS011;45843;47.532;18.660;2024-03-06T02:24:09;0.20;;;0.20;;
59984;SDS011;45843;47.532;18.660;2024-03-06T02:26:37;0.20;;;0.20;;
59984;SDS011;45843;47.532;18.660;2024-03-06T02:29:03;0.10;;;0.10;;
59984;SDS011;45843;47.532;18.660;2024-03-06T02:31:31;0.17;;;0.17;;
59984;SDS011;45843;47.532;18.660;2024-03-06T02:33:58;0.20;;;0.20;;
59984;SDS011;45843;47.532;18.660;2024-03-06T02:36:25;0.10;;;0.10;;
59984;SDS011;45843;47.532;18.660;2024-03-06T02:38:51;0.10;;;0.10;;
59984;SDS011;45843;47.532;18.660;2024-03-06T02:41:17;0.15;;;0.15;;
59984;SDS011;45843;47.532;18.660;2024-03-06T02:43:44;0.10;;;0.10;;
59984;SDS011;45843;47.532;18.660;2024-03-06T02:46:10;0.10;;;0.10;;
59984;SDS011;45843;47.532;18.660;2024-03-06T02:48:36;0.20;;;0.20;;
59984;SDS011;45843;47.532;18.660;2024-03-06T02:51:03;0.10;;;0.10;;
59984;SDS011;45843;47.532;18.660;2024-03-06T02:53:29;0.10;;;0.10;;
59984;SDS011;45843;47.532;18.660;2024-03-06T02:55:55;0.20;;;0.20;;
59984;SDS011;45843;47.532;18.660;2024-03-06T02:58:22;0.20;;;0.20;;
59984;SDS011;45843;47.532;18.660;2024-03-06T03:00:48;0.10;;;0.10;;
59984;SDS011;45843;47.532;18.660;2024-03-06T03:03:14;0.20;;;0.20;;
59984;SDS011;45843;47.532;18.660;2024-03-06T03:05:41;0.20;;;0.20;;
59984;SDS011;45843;47.532;18.660;2024-03-06T03:08:07;0.10;;;0.10;;
59984;SDS011;45843;47.532;18.660;2024-03-06T03:10:34;0.10;;;0.10;;
59984;SDS011;45843;47.532;18.660;2024-03-06T03:13:00;0.10;;;0.10;;
59984;SDS011;45843;47.532;18.660;2024-03-06T03:15:27;0.20;;;0.20;;
59984;SDS011;45843;47.532;18.660;2024-03-06T03:17:53;0.20;;;0.20;;
59984;SDS011;45843;47.532;18.660;2024-03-06T03:20:20;0.20;;;0.20;;
59984;SDS011;45843;47.532;18.660;2024-03-06T03:22:46;0.10;;;0.10;;
59984;SDS011;45843;47.532;18.660;2024-03-06T03:25:13;0.10;;;0.10;;
59984;SDS011;45843;47.532;18.660;2024-03-06T03:27:40;0.15;;;0.15;;
59984;SDS011;45843;47.532;18.660;2024-03-06T03:30:07;0.10;;;0.10;;
59984;SDS011;45843;47.532;18.660;2024-03-06T03:32:34;0.10;;;0.10;;
59984;SDS011;45843;47.532;18.660;2024-03-06T03:35:00;0.20;;;0.20;;
59984;SDS011;45843;47.532;18.660;2024-03-06T03:37:27;0.20;;;0.20;;
59984;SDS011;45843;47.532;18.660;2024-03-06T03:39:53;0.10;;;0.10;;
59984;SDS011;45843;47.532;18.660;2024-03-06T03:42:20;0.10;;;0.10;;
59984;SDS011;45843;47.532;18.660;2024-03-06T03:44:46;0.10;;;0.10;;
59984;SDS011;45843;47.532;18.660;2024-03-06T03:47:12;0.10;;;0.10;;
59984;SDS011;45843;47.532;18.660;2024-03-06T03:49:39;0.10;;;0.10;;
59984;SDS011;45843;47.532;18.660;2024-03-06T03:52:05;0.20;;;0.20;;
59984;SDS011;45843;47.532;18.660;2024-03-06T03:54:32;0.20;;;0.20;;
59984;SDS011;45843;47.532;18.660;2024-03-06T03:56:58;0.10;;;0.10;;
59984;SDS011;45843;47.532;18.660;2024-03-06T03:59:24;0.10;;;0.10;;
59984;SDS011;45843;47.532;18.660;2024-03-06T04:01:51;0.10;;;0.10;;
59984;SDS011;45843;47.532;18.660;2024-03-06T04:04:17;0.20;;;0.20;;
59984;SDS011;45843;47.532;18.660;2024-03-06T04:06:44;0.20;;;0.20;;
59984;SDS011;45843;47.532;18.660;2024-03-06T04:09:11;0.20;;;0.20;;
59984;SDS011;45843;47.532;18.660;2024-03-06T04:11:40;0.17;;;0.17;;
59984;SDS011;45843;47.532;18.660;2024-03-06T04:14:06;0.10;;;0.10;;
59984;SDS011;45843;47.532;18.660;2024-03-06T04:16:33;0.25;;;0.25;;
59984;SDS011;45843;47.532;18.660;2024-03-06T04:18:59;0.20;;;0.20;;
59984;SDS011;45843;47.532;18.660;2024-03-06T04:21:26;0.10;;;0.10;;
59984;SDS011;45843;47.532;18.660;2024-03-06T04:23:52;0.13;;;0.13;;
59984;SDS011;45843;47.532;18.660;2024-03-06T04:26:19;0.10;;;0.10;;
59984;SDS011;45843;47.532;18.660;2024-03-06T04:28:45;0.20;;;0.20;;
59984;SDS011;45843;47.532;18.660;2024-03-06T04:31:12;0.20;;;0.20;;
59984;SDS011;45843;47.532;18.660;2024-03-06T04:33:40;0.10;;;0.10;;
59984;SDS011;45843;47.532;18.660;2024-03-06T04:36:07;0.30;;;0.30;;
59984;SDS011;45843;47.532;18.660;2024-03-06T04:38:34;0.10;;;0.10;;
59984;SDS011;45843;47.532;18.660;2024-03-06T04:41:00;0.10;;;0.10;;
59984;SDS011;45843;47.532;18.660;2024-03-06T04:43:26;0.10;;;0.10;;
59984;SDS011;45843;47.532;18.660;2024-03-06T04:45:53;0.20;;;0.20;;
59984;SDS011;45843;47.532;18.660;2024-03-06T04:48:19;0.22;;;0.22;;
59984;SDS011;45843;47.532;18.660;2024-03-06T04:50:45;0.13;;;0.13;;
59984;SDS011;45843;47.532;18.660;2024-03-06T04:53:12;0.10;;;0.10;;
59984;SDS011;45843;47.532;18.660;2024-03-06T04:55:38;0.10;;;0.10;;
59984;SDS011;45843;47.532;18.660;2024-03-06T04:58:05;0.20;;;0.20;;
59984;SDS011;45843;47.532;18.660;2024-03-06T05:00:31;0.20;;;0.20;;
59984;SDS011;45843;47.532;18.660;2024-03-06T05:02:58;0.20;;;0.20;;
59984;SDS011;45843;47.532;18.660;2024-03-06T05:05:24;0.17;;;0.17;;
59984;SDS011;45843;47.532;18.660;2024-03-06T05:07:50;0.20;;;0.20;;
59984;SDS011;45843;47.532;18.660;2024-03-06T05:10:17;0.28;;;0.28;;
59984;SDS011;45843;47.532;18.660;2024-03-06T05:12:43;0.20;;;0.20;;
59984;SDS011;45843;47.532;18.660;2024-03-06T05:15:10;0.20;;;0.20;;
59984;SDS011;45843;47.532;18.660;2024-03-06T05:17:37;0.03;;;0.03;;
59984;SDS011;45843;47.532;18.660;2024-03-06T05:20:03;0.10;;;0.10;;
59984;SDS011;45843;47.532;18.660;2024-03-06T05:22:30;0.10;;;0.10;;
59984;SDS011;45843;47.532;18.660;2024-03-06T05:24:56;0.15;;;0.15;;
59984;SDS011;45843;47.532;18.660;2024-03-06T05:27:23;0.17;;;0.17;;
59984;SDS011;45843;47.532;18.660;2024-03-06T05:29:50;0.20;;;0.20;;
59984;SDS011;45843;47.532;18.660;2024-03-06T05:32:16;0.20;;;0.20;;
59984;SDS011;45843;47.532;18.660;2024-03-06T05:34:42;0.20;;;0.20;;
59984;SDS011;45843;47.532;18.660;2024-03-06T05:37:10;0.20;;;0.20;;
59984;SDS011;45843;47.532;18.660;2024-03-06T05:39:37;0.20;;;0.20;;
59984;SDS011;45843;47.532;18.660;2024-03-06T05:42:04;0.17;;;0.17;;
59984;SDS011;45843;47.532;18.660;2024-03-06T05:44:30;0.20;;;0.20;;
59984;SDS011;45843;47.532;18.660;2024-03-06T05:47:01;0.10;;;0.10;;
59984;SDS011;45843;47.532;18.660;2024-03-06T05:49:28;0.20;;;0.20;;
59984;SDS011;45843;47.532;18.660;2024-03-06T05:51:54;0.10;;;0.10;;
59984;SDS011;45843;47.532;18.660;2024-03-06T05:54:21;0.20;;;0.20;;
59984;SDS011;45843;47.532;18.660;2024-03-06T05:56:48;0.20;;;0.20;;
59984;SDS011;45843;47.532;18.660;2024-03-06T05:59:17;0.20;;;0.20;;
59984;SDS011;45843;47.532;18.660;2024-03-06T06:01:43;0.20;;;0.20;;
59984;SDS011;45843;47.532;18.660;2024-03-06T06:04:10;0.20;;;0.20;;
59984;SDS011;45843;47.532;18.660;2024-03-06T06:06:36;0.17;;;0.17;;
59984;SDS011;45843;47.532;18.660;2024-03-06T06:09:04;0.10;;;0.10;;
59984;SDS011;45843;47.532;18.660;2024-03-06T06:11:31;0.30;;;0.30;;
59984;SDS011;45843;47.532;18.660;2024-03-06T06:13:58;0.20;;;0.20;;
59984;SDS011;45843;47.532;18.660;2024-03-06T06:16:25;0.20;;;0.20;;
59984;SDS011;45843;47.532;18.660;2024-03-06T06:18:51;0.20;;;0.20;;
59984;SDS011;45843;47.532;18.660;2024-03-06T06:21:18;0.10;;;0.10;;
59984;SDS011;45843;47.532;18.660;2024-03-06T06:23:44;0.25;;;0.25;;
59984;SDS011;45843;47.532;18.660;2024-03-06T06:26:11;0.17;;;0.17;;
59984;SDS011;45843;47.532;18.660;2024-03-06T06:28:37;0.20;;;0.20;;
59984;SDS011;45843;47.532;18.660;2024-03-06T06:31:04;0.20;;;0.20;;
59984;SDS011;45843;47.532;18.660;2024-03-06T06:33:30;0.20;;;0.20;;
59984;SDS011;45843;47.532;18.660;2024-03-06T06:35:57;0.10;;;0.10;;
59984;SDS011;45843;47.532;18.660;2024-03-06T06:38:23;0.10;;;0.10;;
59984;SDS011;45843;47.532;18.660;2024-03-06T06:40:49;0.30;;;0.30;;
59984;SDS011;45843;47.532;18.660;2024-03-06T06:43:16;0.10;;;0.10;;
59984;SDS011;45843;47.532;18.660;2024-03-06T06:45:42;0.15;;;0.15;;
59984;SDS011;45843;47.532;18.660;2024-03-06T06:48:08;0.10;;;0.10;;
59984;SDS011;45843;47.532;18.660;2024-03-06T06:50:35;0.10;;;0.10;;
59984;SDS011;45843;47.532;18.660;2024-03-06T06:53:01;0.10;;;0.10;;
59984;SDS011;45843;47.532;18.660;2024-03-06T06:55:28;0.10;;;0.10;;
59984;SDS011;45843;47.532;18.660;2024-03-06T06:57:54;0.20;;;0.20;;
59984;SDS011;45843;47.532;18.660;2024-03-06T07:00:21;0.20;;;0.20;;
59984;SDS011;45843;47.532;18.660;2024-03-06T07:02:48;0.20;;;0.20;;
59984;SDS011;45843;47.532;18.660;2024-03-06T07:05:15;0.10;;;0.10;;
59984;SDS011;45843;47.532;18.660;2024-03-06T07:07:41;0.20;;;0.20;;
59984;SDS011;45843;47.532;18.660;2024-03-06T07:10:08;0.10;;;0.10;;
59984;SDS011;45843;47.532;18.660;2024-03-06T07:12:35;0.20;;;0.20;;
59984;SDS011;45843;47.532;18.660;2024-03-06T07:15:01;0.15;;;0.15;;
59984;SDS011;45843;47.532;18.660;2024-03-06T07:17:28;0.20;;;0.20;;
59984;SDS011;45843;47.532;18.660;2024-03-06T07:19:54;0.20;;;0.20;;
59984;SDS011;45843;47.532;18.660;2024-03-06T07:22:21;0.20;;;0.20;;
59984;SDS011;45843;47.532;18.660;2024-03-06T07:24:48;0.20;;;0.20;;
59984;SDS011;45843;47.532;18.660;2024-03-06T07:27:14;0.17;;;0.17;;
59984;SDS011;45843;47.532;18.660;2024-03-06T07:29:40;0.20;;;0.20;;
59984;SDS011;45843;47.532;18.660;2024-03-06T07:32:07;0.10;;;0.10;;
59984;SDS011;45843;47.532;18.660;2024-03-06T07:34:33;0.10;;;0.10;;
59984;SDS011;45843;47.532;18.660;2024-03-06T07:37:00;0.20;;;0.20;;
59984;SDS011;45843;47.532;18.660;2024-03-06T07:39:27;0.10;;;0.10;;
59984;SDS011;45843;47.532;18.660;2024-03-06T07:41:54;0.10;;;0.10;;
59984;SDS011;45843;47.532;18.660;2024-03-06T07:44:20;0.20;;;0.20;;
59984;SDS011;45843;47.532;18.660;2024-03-06T07:46:46;0.10;;;0.10;;
59984;SDS011;45843;47.532;18.660;2024-03-06T07:49:14;0.10;;;0.10;;
59984;SDS011;45843;47.532;18.660;2024-03-06T07:51:41;0.10;;;0.10;;
59984;SDS011;45843;47.532;18.660;2024-03-06T07:54:08;0.10;;;0.10;;
59984;SDS011;45843;47.532;18.660;2024-03-06T07:56:34;0.20;;;0.20;;
59984;SDS011;45843;47.532;18.660;2024-03-06T07:59:00;0.10;;;0.10;;
59984;SDS011;45843;47.532;18.660;2024-03-06T08:01:27;0.15;;;0.15;;
59984;SDS011;45843;47.532;18.660;2024-03-06T08:03:54;0.20;;;0.20;;
59984;SDS011;45843;47.532;18.660;2024-03-06T08:06:20;0.10;;;0.10;;
59984;SDS011;45843;47.532;18.660;2024-03-06T08:08:47;0.10;;;0.10;;
59984;SDS011;45843;47.532;18.660;2024-03-06T08:11:13;0.10;;;0.10;;
59984;SDS011;45843;47.532;18.660;2024-03-06T08:13:40;0.10;;;0.10;;
59984;SDS011;45843;47.532;18.660;2024-03-06T08:16:07;0.10;;;0.10;;
59984;SDS011;45843;47.532;18.660;2024-03-06T08:18:34;0.10;;;0.10;;
59984;SDS011;45843;47.532;18.660;2024-03-06T08:21:01;0.20;;;0.20;;
59984;SDS011;45843;47.532;18.660;2024-03-06T08:23:28;0.10;;;0.10;;
59984;SDS011;45843;47.532;18.660;2024-03-06T08:25:55;0.10;;;0.10;;
59984;SDS011;45843;47.532;18.660;2024-03-06T08:28:22;0.10;;;0.10;;
59984;SDS011;45843;47.532;18.660;2024-03-06T08:30:48;0.10;;;0.10;;
59984;SDS011;45843;47.532;18.660;2024-03-06T08:33:15;0.10;;;0.10;;
59984;SDS011;45843;47.532;18.660;2024-03-06T08:35:42;0.10;;;0.10;;
59984;SDS011;45843;47.532;18.660;2024-03-06T08:38:09;0.10;;;0.10;;
59984;SDS011;45843;47.532;18.660;2024-03-06T08:40:35;0.10;;;0.10;;
59984;SDS011;45843;47.532;18.660;2024-03-06T08:43:03;0.10;;;0.10;;
59984;SDS011;45843;47.532;18.660;2024-03-06T08:45:29;0.10;;;0.10;;
59984;SDS011;45843;47.532;18.660;2024-03-06T08:47:55;0.10;;;0.10;;
59984;SDS011;45843;47.532;18.660;2024-03-06T08:50:22;0.10;;;0.10;;
59984;SDS011;45843;47.532;18.660;2024-03-06T08:52:48;0.10;;;0.10;;
59984;SDS011;45843;47.532;18.660;2024-03-06T08:55:14;0.10;;;0.10;;
59984;SDS011;45843;47.532;18.660;2024-03-06T08:57:41;0.10;;;0.10;;
59984;SDS011;45843;47.532;18.660;2024-03-06T09:00:08;0.00;;;0.00;;
59984;SDS011;45843;47.532;18.660;2024-03-06T09:02:36;0.20;;;0.20;;
59984;SDS011;45843;47.532;18.660;2024-03-06T09:05:06;0.10;;;0.10;;
59984;SDS011;45843;47.532;18.660;2024-03-06T09:07:34;0.10;;;0.10;;
59984;SDS011;45843;47.532;18.660;2024-03-06T09:10:11;0.10;;;0.10;;
59984;SDS011;45843;47.532;18.660;2024-03-06T09:12:38;0.20;;;0.20;;
59984;SDS011;45843;47.532;18.660;2024-03-06T09:15:05;0.10;;;0.10;;
59984;SDS011;45843;47.532;18.660;2024-03-06T09:17:35;0.00;;;0.00;;
59984;SDS011;45843;47.532;18.660;2024-03-06T09:20:01;0.10;;;0.10;;
59984;SDS011;45843;47.532;18.660;2024-03-06T09:22:36;0.10;;;0.10;;
59984;SDS011;45843;47.532;18.660;2024-03-06T09:25:03;0.10;;;0.10;;
59984;SDS011;45843;47.532;18.660;2024-03-06T09:27:29;0.10;;;0.10;;
59984;SDS011;45843;47.532;18.660;2024-03-06T09:29:56;0.03;;;0.03;;
59984;SDS011;45843;47.532;18.660;2024-03-06T09:32:22;0.10;;;0.10;;
59984;SDS011;45843;47.532;18.660;2024-03-06T09:34:49;0.00;;;0.00;;
59984;SDS011;45843;47.532;18.660;2024-03-06T09:37:15;0.10;;;0.10;;
59984;SDS011;45843;47.532;18.660;2024-03-06T09:39:41;0.10;;;0.10;;
59984;SDS011;45843;47.532;18.660;2024-03-06T09:42:08;0.10;;;0.10;;
59984;SDS011;45843;47.532;18.660;2024-03-06T09:44:34;0.10;;;0.10;;
59984;SDS011;45843;47.532;18.660;2024-03-06T09:47:02;0.10;;;0.10;;
59984;SDS011;45843;47.532;18.660;2024-03-06T09:49:29;0.00;;;0.00;;
59984;SDS011;45843;47.532;18.660;2024-03-06T09:51:56;0.10;;;0.10;;
59984;SDS011;45843;47.532;18.660;2024-03-06T09:54:23;0.10;;;0.10;;
59984;SDS011;45843;47.532;18.660;2024-03-06T09:56:52;0.00;;;0.00;;
59984;SDS011;45843;47.532;18.660;2024-03-06T09:59:21;0.05;;;0.05;;
59984;SDS011;45843;47.532;18.660;2024-03-06T10:01:53;0.00;;;0.00;;
59984;SDS011;45843;47.532;18.660;2024-03-06T10:04:23;0.05;;;0.05;;
59984;SDS011;45843;47.532;18.660;2024-03-06T10:06:50;0.10;;;0.10;;
59984;SDS011;45843;47.532;18.660;2024-03-06T10:09:20;0.00;;;0.00;;
59984;SDS011;45843;47.532;18.660;2024-03-06T10:11:47;0.10;;;0.10;;
59984;SDS011;45843;47.532;18.660;2024-03-06T10:14:13;0.10;;;0.10;;
59984;SDS011;45843;47.532;18.660;2024-03-06T10:16:56;0.00;;;0.00;;
59984;SDS011;45843;47.532;18.660;2024-03-06T10:19:23;0.00;;;0.00;;
59984;SDS011;45843;47.532;18.660;2024-03-06T10:21:50;0.10;;;0.10;;
59984;SDS011;45843;47.532;18.660;2024-03-06T10:24:20;0.00;;;0.00;;
59984;SDS011;45843;47.532;18.660;2024-03-06T10:26:48;0.00;;;0.00;;
59984;SDS011;45843;47.532;18.660;2024-03-06T10:29:16;0.00;;;0.00;;
59984;SDS011;45843;47.532;18.660;2024-03-06T10:32:02;0.05;;;0.05;;
59984;SDS011;45843;47.532;18.660;2024-03-06T10:34:28;0.00;;;0.00;;
59984;SDS011;45843;47.532;18.660;2024-03-06T10:36:55;0.00;;;0.00;;
59984;SDS011;45843;47.532;18.660;2024-03-06T10:39:22;0.00;;;0.00;;
59984;SDS011;45843;47.532;18.660;2024-03-06T10:41:52;0.00;;;0.00;;
59984;SDS011;45843;47.532;18.660;2024-03-06T10:44:26;0.00;;;0.00;;
59984;SDS011;45843;47.532;18.660;2024-03-06T10:46:59;0.00;;;0.00;;
59984;SDS011;45843;47.532;18.660;2024-03-06T10:49:26;0.00;;;0.00;;
59984;SDS011;45843;47.532;18.660;2024-03-06T10:52:02;0.00;;;0.00;;
59984;SDS011;45843;47.532;18.660;2024-03-06T10:54:32;0.00;;;0.00;;
59984;SDS011;45843;47.532;18.660;2024-03-06T10:57:00;0.00;;;0.00;;
59984;SDS011;45843;47.532;18.660;2024-03-06T10:59:28;0.00;;;0.00;;
59984;SDS011;45843;47.532;18.660;2024-03-06T11:01:55;0.03;;;0.03;;
59984;SDS011;45843;47.532;18.660;2024-03-06T11:04:28;0.00;;;0.00;;
59984;SDS011;45843;47.532;18.660;2024-03-06T11:06:55;0.00;;;0.00;;
59984;SDS011;45843;47.532;18.660;2024-03-06T11:09:22;0.00;;;0.00;;
59984;SDS011;45843;47.532;18.660;2024-03-06T11:11:49;0.00;;;0.00;;
59984;SDS011;45843;47.532;18.660;2024-03-06T11:14:16;0.00;;;0.00;;
59984;SDS011;45843;47.532;18.660;2024-03-06T11:16:57;0.00;;;0.00;;
59984;SDS011;45843;47.532;18.660;2024-03-06T11:19:28;0.00;;;0.00;;
59984;SDS011;45843;47.532;18.660;2024-03-06T11:21:55;0.00;;;0.00;;
59984;SDS011;45843;47.532;18.660;2024-03-06T11:24:34;0.00;;;0.00;;
59984;SDS011;45843;47.532;18.660;2024-03-06T11:27:01;0.00;;;0.00;;
59984;SDS011;45843;47.532;18.660;2024-03-06T11:29:28;0.00;;;0.00;;
59984;SDS011;45843;47.532;18.660;2024-03-06T11:31:56;0.00;;;0.00;;
59984;SDS011;45843;47.532;18.660;2024-03-06T11:34:22;0.00;;;0.00;;
59984;SDS011;45843;47.532;18.660;2024-03-06T11:36:53;0.00;;;0.00;;
59984;SDS011;45843;47.532;18.660;2024-03-06T11:39:19;0.00;;;0.00;;
59984;SDS011;45843;47.532;18.660;2024-03-06T11:44:15;0.00;;;0.00;;
59984;SDS011;45843;47.532;18.660;2024-03-06T11:46:42;0.00;;;0.00;;
59984;SDS011;45843;47.532;18.660;2024-03-06T11:49:25;0.10;;;0.10;;
59984;SDS011;45843;47.532;18.660;2024-03-06T11:51:53;0.00;;;0.00;;
59984;SDS011;45843;47.532;18.660;2024-03-06T11:54:19;0.00;;;0.00;;
59984;SDS011;45843;47.532;18.660;2024-03-06T11:56:50;0.00;;;0.00;;
59984;SDS011;45843;47.532;18.660;2024-03-06T11:59:17;0.10;;;0.10;;
59984;SDS011;45843;47.532;18.660;2024-03-06T12:01:44;0.00;;;0.00;;
59984;SDS011;45843;47.532;18.660;2024-03-06T12:04:11;0.00;;;0.00;;
59984;SDS011;45843;47.532;18.660;2024-03-06T12:06:37;0.00;;;0.00;;
59984;SDS011;45843;47.532;18.660;2024-03-06T12:09:04;0.08;;;0.08;;
59984;SDS011;45843;47.532;18.660;2024-03-06T12:11:30;0.00;;;0.00;;
59984;SDS011;45843;47.532;18.660;2024-03-06T12:13:57;0.00;;;0.00;;
59984;SDS011;45843;47.532;18.660;2024-03-06T12:16:23;0.10;;;0.10;;
59984;SDS011;45843;47.532;18.660;2024-03-06T12:18:56;0.00;;;0.00;;
59984;SDS011;45843;47.532;18.660;2024-03-06T12:21:32;0.00;;;0.00;;
59984;SDS011;45843;47.532;18.660;2024-03-06T12:24:03;0.00;;;0.00;;
59984;SDS011;45843;47.532;18.660;2024-03-06T12:26:29;0.00;;;0.00;;
59984;SDS011;45843;47.532;18.660;2024-03-06T12:29:08;0.00;;;0.00;;
59984;SDS011;45843;47.532;18.660;2024-03-06T12:31:36;0.00;;;0.00;;
59984;SDS011;45843;47.532;18.660;2024-03-06T12:34:03;0.00;;;0.00;;
59984;SDS011;45843;47.532;18.660;2024-03-06T12:36:30;0.00;;;0.00;;
59984;SDS011;45843;47.532;18.660;2024-03-06T12:39:00;0.00;;;0.00;;
59984;SDS011;45843;47.532;18.660;2024-03-06T12:41:27;0.00;;;0.00;;
59984;SDS011;45843;47.532;18.660;2024-03-06T12:43:54;0.00;;;0.00;;
59984;SDS011;45843;47.532;18.660;2024-03-06T12:46:23;0.00;;;0.00;;
59984;SDS011;45843;47.532;18.660;2024-03-06T12:48:51;0.10;;;0.10;;
59984;SDS011;45843;47.532;18.660;2024-03-06T12:51:18;0.00;;;0.00;;
59984;SDS011;45843;47.532;18.660;2024-03-06T12:53:44;0.00;;;0.00;;
59984;SDS011;45843;47.532;18.660;2024-03-06T12:56:11;0.00;;;0.00;;
59984;SDS011;45843;47.532;18.660;2024-03-06T12:58:37;0.00;;;0.00;;
59984;SDS011;45843;47.532;18.660;2024-03-06T13:01:03;0.00;;;0.00;;
59984;SDS011;45843;47.532;18.660;2024-03-06T13:03:31;0.10;;;0.10;;
59984;SDS011;45843;47.532;18.660;2024-03-06T13:05:57;0.00;;;0.00;;
59984;SDS011;45843;47.532;18.660;2024-03-06T13:08:24;0.00;;;0.00;;
59984;SDS011;45843;47.532;18.660;2024-03-06T13:10:50;0.00;;;0.00;;
59984;SDS011;45843;47.532;18.660;2024-03-06T13:13:17;0.00;;;0.00;;
59984;SDS011;45843;47.532;18.660;2024-03-06T13:15:43;0.00;;;0.00;;
59984;SDS011;45843;47.532;18.660;2024-03-06T13:18:09;0.05;;;0.05;;
59984;SDS011;45843;47.532;18.660;2024-03-06T13:20:36;0.00;;;0.00;;
59984;SDS011;45843;47.532;18.660;2024-03-06T13:23:02;0.00;;;0.00;;
59984;SDS011;45843;47.532;18.660;2024-03-06T13:25:29;0.00;;;0.00;;
59984;SDS011;45843;47.532;18.660;2024-03-06T13:27:56;0.10;;;0.10;;
59984;SDS011;45843;47.532;18.660;2024-03-06T13:30:24;0.00;;;0.00;;
59984;SDS011;45843;47.532;18.660;2024-03-06T13:32:51;0.00;;;0.00;;
59984;SDS011;45843;47.532;18.660;2024-03-06T13:35:17;0.10;;;0.10;;
59984;SDS011;45843;47.532;18.660;2024-03-06T13:37:44;0.00;;;0.00;;
59984;SDS011;45843;47.532;18.660;2024-03-06T13:40:10;0.00;;;0.00;;
59984;SDS011;45843;47.532;18.660;2024-03-06T13:42:39;0.00;;;0.00;;
59984;SDS011;45843;47.532;18.660;2024-03-06T13:45:06;0.00;;;0.00;;
59984;SDS011;45843;47.532;18.660;2024-03-06T13:47:42;0.00;;;0.00;;
59984;SDS011;45843;47.532;18.660;2024-03-06T13:50:09;0.00;;;0.00;;
59984;SDS011;45843;47.532;18.660;2024-03-06T13:52:36;0.00;;;0.00;;
59984;SDS011;45843;47.532;18.660;2024-03-06T13:55:03;0.10;;;0.10;;
59984;SDS011;45843;47.532;18.660;2024-03-06T13:57:33;0.00;;;0.00;;
59984;SDS011;45843;47.532;18.660;2024-03-06T14:00:03;0.00;;;0.00;;
59984;SDS011;45843;47.532;18.660;2024-03-06T14:02:45;0.00;;;0.00;;
59984;SDS011;45843;47.532;18.660;2024-03-06T14:05:12;0.00;;;0.00;;
59984;SDS011;45843;47.532;18.660;2024-03-06T14:07:42;0.00;;;0.00;;
59984;SDS011;45843;47.532;18.660;2024-03-06T14:10:09;0.00;;;0.00;;
59984;SDS011;45843;47.532;18.660;2024-03-06T14:12:36;0.00;;;0.00;;
59984;SDS011;45843;47.532;18.660;2024-03-06T14:15:03;0.00;;;0.00;;
59984;SDS011;45843;47.532;18.660;2024-03-06T14:17:30;0.00;;;0.00;;
59984;SDS011;45843;47.532;18.660;2024-03-06T14:19:56;0.00;;;0.00;;
59984;SDS011;45843;47.532;18.660;2024-03-06T14:22:23;0.00;;;0.00;;
59984;SDS011;45843;47.532;18.660;2024-03-06T14:24:49;0.15;;;0.00;;
59984;SDS011;45843;47.532;18.660;2024-03-06T14:27:15;0.00;;;0.00;;
59984;SDS011;45843;47.532;18.660;2024-03-06T14:29:42;0.00;;;0.00;;
59984;SDS011;45843;47.532;18.660;2024-03-06T14:32:08;0.00;;;0.00;;
59984;SDS011;45843;47.532;18.660;2024-03-06T14:34:35;0.00;;;0.00;;
59984;SDS011;45843;47.532;18.660;2024-03-06T14:37:02;0.10;;;0.10;;